Time;durP1;ratioP1;P1;durP2;ratioP2;P2;SDS_P1;SDS_P2;PMS_P1;PMS_P2;Temp;Humidity;BMP_temperature;BMP_pressure;BME280_temperature;BME280_humidity;BME280_pressure;Samples;Min_cycle;Max_cycle;Signal;HPM_P1;HPM_P2
2022/05/10 00:01:44;;;;;;;3.90;1.60;;;;;;;15.64;38.92;101185.29;117276;1186;23557;-56
2022/05/10 00:04:12;;;;;;;3.50;1.50;;;;;;;15.62;39.03;101187.27;117380;1185;23563;-51
2022/05/10 00:06:46;;;;;;;8.40;1.70;;;;;;;15.61;39.00;101190.64;117496;1185;23459;-54
2022/05/10 00:09:16;;;;;;;4.80;1.70;;;;;;;15.61;39.10;101190.47;117655;1183;24153;-51
2022/05/10 00:11:44;;;;;;;4.50;1.70;;;;;;;15.60;39.02;101191.90;117512;1183;21847;-55
2022/05/10 00:14:12;;;;;;;3.70;2.20;;;;;;;15.59;38.95;101194.75;117557;1185;24260;-54
2022/05/10 00:16:42;;;;;;;6.90;1.80;;;;;;;15.57;39.08;101194.80;117516;1185;23538;-56
2022/05/10 00:19:14;;;;;;;4.70;1.80;;;;;;;15.56;39.07;101196.05;117556;1185;24250;-54
2022/05/10 00:21:42;;;;;;;6.20;1.70;;;;;;;15.55;38.95;101200.13;117556;1184;23003;-55
2022/05/10 00:24:11;;;;;;;5.80;1.50;;;;;;;15.54;39.13;101198.57;117490;1186;23538;-51
2022/05/10 00:26:39;;;;;;;3.10;1.50;;;;;;;15.55;39.05;101196.23;117551;1184;22518;-55
2022/05/10 00:29:08;;;;;;;4.60;1.70;;;;;;;15.53;39.09;101198.21;117562;1186;24133;-55
2022/05/10 00:31:36;;;;;;;4.20;1.70;;;;;;;15.51;39.08;101200.59;117448;1185;23560;-51
2022/05/10 00:34:04;;;;;;;3.30;1.50;;;;;;;15.47;39.07;101199.22;117411;1186;23861;-55
2022/05/10 00:36:33;;;;;;;3.20;1.80;;;;;;;15.44;39.01;101203.73;117392;1185;24211;-55
2022/05/10 00:39:01;;;;;;;3.40;1.70;;;;;;;15.39;39.05;101200.63;117427;1186;24133;-55
2022/05/10 00:41:41;;;;;;;2.90;1.70;;;;;;;15.34;39.17;101198.95;117403;1186;23459;-56
2022/05/10 00:44:14;;;;;;;4.70;1.80;;;;;;;15.30;39.08;101195.30;117386;1184;23458;-55
2022/05/10 00:46:52;;;;;;;6.80;1.60;;;;;;;15.28;39.14;101200.48;117443;1185;24152;-55
2022/05/10 00:49:27;;;;;;;5.10;1.80;;;;;;;15.23;39.13;101200.73;117440;1186;24708;-55
2022/05/10 00:52:00;;;;;;;6.70;1.80;;;;;;;15.17;39.16;101201.39;117492;1184;23621;-51
2022/05/10 00:54:50;;;;;;;5.70;1.60;;;;;;;15.08;39.12;101199.26;117482;1185;23007;-51
2022/05/10 00:57:29;;;;;;;4.90;1.70;;;;;;;15.00;39.13;101199.40;117317;1186;22936;-55
2022/05/10 01:00:29;;;;;;;3.90;1.70;;;;;;;14.94;39.19;101197.73;117478;1185;23635;-51
2022/05/10 01:03:12;;;;;;;7.80;2.00;;;;;;;14.89;39.15;101202.07;117381;1186;24728;-54
2022/05/10 01:06:05;;;;;;;5.90;1.60;;;;;;;14.85;39.18;101205.48;117308;1186;23508;-55
2022/05/10 01:09:04;;;;;;;5.10;1.20;;;;;;;14.81;39.25;101206.96;117439;1185;23620;-56
2022/05/10 01:11:36;;;;;;;9.40;2.10;;;;;;;14.77;39.29;101205.63;117446;1185;23563;-55
2022/05/10 01:14:09;;;;;;;6.60;1.40;;;;;;;14.70;39.21;101205.02;117393;1186;22012;-54
2022/05/10 01:16:37;;;;;;;5.90;1.50;;;;;;;14.65;39.30;101200.84;117343;1186;21843;-56
2022/05/10 01:19:05;;;;;;;8.50;2.00;;;;;;;14.63;39.34;101196.27;117370;1185;23627;-50
2022/05/10 01:21:59;;;;;;;10.40;2.00;;;;;;;14.64;39.38;101195.73;117473;1185;24233;-55
2022/05/10 01:24:50;;;;;;;5.20;1.60;;;;;;;14.64;39.28;101201.73;117349;1185;22691;-51
2022/05/10 01:27:46;;;;;;;8.70;1.60;;;;;;;14.61;39.26;101200.52;117385;1186;23541;-55
2022/05/10 01:30:22;;;;;;;4.50;1.40;;;;;;;14.60;39.29;101200.55;117495;1186;23522;-55
2022/05/10 01:35:49;;;;;;;4.40;1.70;;;;;;;14.54;39.37;101200.30;117434;1184;21851;-52
2022/05/10 01:38:32;;;;;;;3.20;1.30;;;;;;;14.54;39.48;101202.08;117546;1185;21859;-55
2022/05/10 01:41:06;;;;;;;3.30;1.30;;;;;;;14.54;39.42;101201.55;117491;1185;24204;-55
2022/05/10 01:43:38;;;;;;;6.10;1.80;;;;;;;14.52;39.30;101199.80;117402;1186;21907;-51
2022/05/10 01:46:15;;;;;;;8.20;1.90;;;;;;;14.49;39.39;101200.38;117517;1185;24149;-50
2022/05/10 01:48:45;;;;;;;8.40;1.70;;;;;;;14.46;39.35;101200.96;117469;1185;23540;-56
2022/05/10 01:51:28;;;;;;;9.10;2.40;;;;;;;14.40;39.47;101201.57;117581;1186;21855;-51
2022/05/10 01:53:56;;;;;;;8.70;2.60;;;;;;;14.35;39.46;101196.88;117549;1185;22982;-50
2022/05/10 01:56:25;;;;;;;8.70;2.10;;;;;;;14.36;39.42;101197.04;117371;1186;23539;-56
2022/05/10 01:58:54;;;;;;;8.90;1.30;;;;;;;14.33;39.37;101200.27;117532;1186;21849;-50
2022/05/10 02:01:32;;;;;;;5.20;1.40;;;;;;;14.31;39.34;101203.84;117533;1186;21870;-55
2022/05/10 02:04:09;;;;;;;7.20;1.20;;;;;;;14.28;39.27;101200.34;117540;1185;21854;-50
2022/05/10 02:06:50;;;;;;;5.70;1.50;;;;;;;14.24;39.35;101198.98;117519;1181;23000;-55
2022/05/10 02:09:23;;;;;;;;;;;;;;;14.20;39.33;101199.92;117504;1185;22916;-51
2022/05/10 02:11:55;;;;;;;7.00;1.20;;;;;;;14.16;39.28;101198.20;117581;1185;22624;-51
2022/05/10 02:14:31;;;;;;;9.30;1.70;;;;;;;14.10;39.39;101199.19;117266;1186;21963;-50
2022/05/10 02:16:59;;;;;;;8.40;1.40;;;;;;;14.03;39.41;101195.39;117395;1185;23489;-55
2022/05/10 02:19:33;;;;;;;11.50;2.00;;;;;;;14.00;39.45;101197.55;117428;1185;22916;-55
2022/05/10 02:22:05;;;;;;;8.80;2.10;;;;;;;13.96;39.44;101203.24;117368;1185;21878;-55
2022/05/10 02:24:40;;;;;;;10.50;2.20;;;;;;;13.93;39.39;101204.33;117208;1186;21868;-54
2022/05/10 02:27:16;;;;;;;8.30;1.40;;;;;;;13.89;39.28;101212.69;117325;1186;21859;-50
2022/05/10 02:29:51;;;;;;;8.20;2.40;;;;;;;13.84;39.25;101212.75;117313;1186;21863;-50
2022/05/10 02:35:13;;;;;;;6.60;1.60;;;;;;;13.69;39.31;101209.39;117374;1185;23544;-55
2022/05/10 02:37:41;;;;;;;4.90;1.70;;;;;;;13.63;39.34;101213.18;117397;1185;23550;-50
2022/05/10 02:40:10;;;;;;;5.20;1.60;;;;;;;13.56;39.27;101207.96;117372;1185;21851;-50
2022/05/10 02:42:39;;;;;;;7.70;1.60;;;;;;;13.50;39.37;101213.32;117542;1186;21932;-55
2022/05/10 02:45:08;;;;;;;6.30;1.40;;;;;;;13.45;39.28;101213.73;117384;1186;23643;-55
2022/05/10 02:47:38;;;;;;;6.40;2.10;;;;;;;13.36;39.29;101219.09;117553;1184;21849;-55
2022/05/10 02:50:14;;;;;;;5.50;2.10;;;;;;;13.26;39.26;101217.41;117562;1185;21892;-49
2022/05/10 02:52:42;;;;;;;9.20;2.70;;;;;;;13.20;39.46;101221.71;117318;1186;22903;-54
2022/05/10 02:55:35;;;;;;;9.40;2.20;;;;;;;13.18;39.48;101224.02;117354;1186;21857;-54
2022/05/10 02:58:17;;;;;;;7.50;1.90;;;;;;;13.17;39.51;101221.56;117272;1186;21896;-55
2022/05/10 03:00:45;;;;;;;11.10;2.00;;;;;;;13.13;39.43;101217.02;117411;1183;21855;-54
2022/05/10 03:03:15;;;;;;;6.60;1.60;;;;;;;13.09;39.68;101218.10;117348;1186;21857;-54
2022/05/10 03:05:44;;;;;;;8.00;2.00;;;;;;;13.08;39.69;101218.11;117390;1185;22812;-54
2022/05/10 03:08:15;;;;;;;14.00;2.60;;;;;;;13.09;39.71;101220.39;117390;1185;22930;-54
2022/05/10 03:10:44;;;;;;;7.70;2.10;;;;;;;13.14;39.82;101221.77;117329;1186;23554;-54
2022/05/10 03:13:13;;;;;;;5.20;1.80;;;;;;;13.22;39.94;101225.23;117313;1185;23544;-54
2022/05/10 03:15:42;;;;;;;9.10;2.10;;;;;;;13.27;40.00;101224.64;117615;1185;23542;-55
2022/05/10 03:18:10;;;;;;;9.90;1.70;;;;;;;13.32;39.89;101219.64;117486;1185;22930;-54
2022/05/10 03:20:38;;;;;;;11.40;2.00;;;;;;;13.38;39.93;101219.23;117535;1184;24702;-54
2022/05/10 03:23:08;;;;;;;8.60;1.80;;;;;;;13.45;40.03;101211.96;117684;1185;23522;-50
2022/05/10 03:25:37;;;;;;;7.30;1.40;;;;;;;13.53;40.09;101205.70;117278;1186;21852;-54
2022/05/10 03:28:06;;;;;;;10.50;1.70;;;;;;;13.62;40.15;101213.02;117400;1186;23468;-54
2022/05/10 03:30:35;;;;;;;;;;;;;;;13.69;40.22;101210.10;117543;1184;23638;-50
2022/05/10 03:33:04;;;;;;;20.50;2.00;;;;;;;13.78;40.25;101211.77;117470;1185;24146;-53
2022/05/10 03:35:32;;;;;;;20.50;2.60;;;;;;;13.87;40.35;101210.41;117374;1185;21851;-51
2022/05/10 03:38:01;;;;;;;12.50;2.30;;;;;;;13.97;40.37;101211.70;117548;1185;21856;-54
2022/05/10 03:40:29;;;;;;;6.20;1.50;;;;;;;14.07;40.35;101220.21;117479;1186;23538;-53
2022/05/10 03:42:58;;;;;;;6.30;1.50;;;;;;;14.16;40.22;101227.51;117593;1185;21849;-53
2022/05/10 03:45:26;;;;;;;7.20;1.50;;;;;;;14.19;40.22;101227.46;117453;1185;23426;-53
2022/05/10 03:47:54;;;;;;;7.50;1.70;;;;;;;14.22;40.22;101226.55;117528;1186;24146;-50
2022/05/10 03:50:24;;;;;;;8.60;1.90;;;;;;;14.25;40.14;101228.80;117519;1185;23535;-55
2022/05/10 03:52:52;;;;;;;15.90;1.80;;;;;;;14.29;40.35;101231.91;117424;1185;21859;-49
2022/05/10 03:55:24;;;;;;;5.80;2.00;;;;;;;14.35;40.32;101229.90;117463;1185;21849;-49
2022/05/10 03:57:55;;;;;;;;;;;;;;;14.44;40.36;101226.59;117518;1185;24128;-49
2022/05/10 04:00:27;;;;;;;7.10;1.10;;;;;;;14.54;40.48;101229.95;117497;1185;24236;-50
2022/05/10 04:02:56;;;;;;;7.30;1.70;;;;;;;14.66;40.52;101223.44;117469;1185;21856;-54
2022/05/10 04:05:26;;;;;;;5.60;1.60;;;;;;;14.79;40.49;101226.95;117393;1185;24232;-55
2022/05/10 04:07:54;;;;;;;5.70;1.90;;;;;;;14.93;40.58;101228.52;117346;1186;21851;-55
2022/05/10 04:10:22;;;;;;;3.30;1.50;;;;;;;15.07;40.57;101224.19;117333;1185;23553;-54
2022/05/10 04:12:51;;;;;;;6.10;1.40;;;;;;;15.20;40.57;101225.73;117468;1185;23566;-50
2022/05/10 04:15:19;;;;;;;3.70;1.10;;;;;;;15.32;40.53;101226.73;117451;1184;24149;-55
2022/05/10 04:17:48;;;;;;;3.50;1.20;;;;;;;15.45;40.59;101227.58;117475;1184;21853;-55
2022/05/10 04:20:17;;;;;;;7.00;1.40;;;;;;;15.57;40.53;101219.73;117405;1184;23563;-50
2022/05/10 04:22:45;;;;;;;2.90;1.50;;;;;;;15.70;40.52;101221.24;117410;1185;23567;-50
2022/05/10 04:25:17;;;;;;;6.30;1.10;;;;;;;15.82;40.56;101224.73;117357;1186;23585;-54
2022/05/10 04:27:45;;;;;;;;;;;;;;;15.94;40.47;101227.34;117406;1184;21907;-50
2022/05/10 04:30:13;;;;;;;6.80;1.40;;;;;;;16.05;40.41;101227.80;117326;1186;23557;-54
2022/05/10 04:32:41;;;;;;;3.90;1.40;;;;;;;16.16;40.37;101224.73;117417;1184;21858;-53
2022/05/10 04:35:10;;;;;;;3.60;1.00;;;;;;;16.25;40.33;101226.67;117427;1185;22918;-50
2022/05/10 04:37:38;;;;;;;2.40;0.90;;;;;;;16.34;40.27;101225.04;117412;1184;21848;-50
2022/05/10 04:42:54;;;;;;;2.50;1.00;;;;;;;16.60;40.37;101220.73;117424;1185;23637;-54
2022/05/10 04:45:23;;;;;;;2.80;1.10;;;;;;;16.76;40.31;101223.36;117386;1185;23466;-54
2022/05/10 04:47:51;;;;;;;2.50;1.00;;;;;;;16.91;40.35;101220.51;117461;1186;23596;-54
2022/05/10 04:50:20;;;;;;;3.90;1.10;;;;;;;17.07;40.34;101218.89;117323;1185;23570;-53
2022/05/10 04:52:49;;;;;;;5.70;1.60;;;;;;;17.24;40.35;101215.42;117498;1185;22999;-54
2022/05/10 04:55:20;;;;;;;5.90;1.70;;;;;;;17.41;40.29;101219.23;117566;1186;21856;-50
2022/05/10 04:57:48;;;;;;;4.90;1.70;;;;;;;17.60;40.33;101221.36;117505;1184;23027;-54
2022/05/10 05:00:16;;;;;;;4.30;1.50;;;;;;;17.78;40.21;101221.91;117538;1185;21852;-51
2022/05/10 05:02:46;;;;;;;6.00;1.80;;;;;;;17.97;40.21;101221.02;117523;1185;21866;-51
2022/05/10 05:05:14;;;;;;;3.60;1.50;;;;;;;18.17;40.18;101220.98;117532;1183;21851;-51
2022/05/10 05:07:43;;;;;;;5.50;1.70;;;;;;;18.36;40.13;101219.52;117517;1185;23436;-51
2022/05/10 05:10:11;;;;;;;2.80;1.30;;;;;;;18.56;40.07;101222.09;117556;1185;21851;-51
2022/05/10 05:12:40;;;;;;;5.20;1.50;;;;;;;18.74;39.99;101224.33;117502;1186;24155;-52
2022/05/10 05:15:11;;;;;;;5.10;1.20;;;;;;;18.91;39.80;101225.55;117527;1185;22898;-51
2022/05/10 05:17:39;;;;;;;4.50;1.40;;;;;;;19.07;39.72;101225.03;117440;1186;21849;-55
2022/05/10 05:20:09;;;;;;;7.10;1.30;;;;;;;19.21;39.69;101227.05;117688;1184;21873;-55
2022/05/10 05:22:37;;;;;;;2.80;1.40;;;;;;;19.34;39.65;101231.05;117549;1185;21846;-54
2022/05/10 05:25:07;;;;;;;5.90;1.90;;;;;;;19.50;39.58;101231.55;117546;1183;21902;-55
2022/05/10 05:27:36;;;;;;;4.00;1.40;;;;;;;19.69;39.48;101226.97;117555;1185;21974;-52
2022/05/10 05:30:04;;;;;;;4.70;1.60;;;;;;;19.86;39.45;101229.52;117453;1185;23560;-54
2022/05/10 05:32:34;;;;;;;5.30;1.50;;;;;;;20.06;39.34;101231.32;117548;1184;22633;-52
2022/05/10 05:35:03;;;;;;;2.80;1.20;;;;;;;20.24;39.33;101232.73;117594;1184;22832;-55
2022/05/10 05:37:37;;;;;;;4.70;1.50;;;;;;;20.42;39.21;101232.20;117510;1181;22906;-54
2022/05/10 05:40:15;;;;;;;3.90;1.10;;;;;;;20.58;39.03;101233.36;117564;1185;22926;-53
2022/05/10 05:42:47;;;;;;;2.90;1.60;;;;;;;20.72;38.88;101236.71;117405;1185;22938;-55
2022/05/10 05:45:16;;;;;;;3.60;1.40;;;;;;;20.89;38.84;101238.17;117386;1186;21894;-54
2022/05/10 05:47:45;;;;;;;3.40;1.60;;;;;;;21.08;38.70;101237.38;117514;1185;21946;-52
2022/05/10 05:50:15;;;;;;;3.70;1.40;;;;;;;21.24;38.59;101237.80;117406;1185;23807;-55
2022/05/10 05:52:44;;;;;;;3.80;1.50;;;;;;;21.45;38.60;101237.58;117382;1185;23531;-54
2022/05/10 05:55:12;;;;;;;15.30;2.30;;;;;;;21.62;38.41;101238.84;117395;1186;24209;-52
2022/05/10 05:57:41;;;;;;;5.20;1.20;;;;;;;21.81;38.47;101237.08;117519;1184;23018;-54
2022/05/10 06:00:13;;;;;;;2.80;1.00;;;;;;;21.95;38.25;101237.52;117559;1184;22958;-53
2022/05/10 06:02:43;;;;;;;2.90;1.30;;;;;;;22.06;38.13;101237.88;117542;1184;21997;-53
2022/05/10 06:05:12;;;;;;;3.90;1.10;;;;;;;22.25;38.07;101236.27;117508;1185;23002;-54
2022/05/10 06:07:41;;;;;;;3.20;0.90;;;;;;;22.48;38.01;101233.05;117518;1186;23426;-53
2022/05/10 06:10:10;;;;;;;3.10;1.10;;;;;;;22.71;38.02;101235.70;117505;1185;21852;-56
2022/05/10 06:12:39;;;;;;;3.20;0.90;;;;;;;22.95;37.97;101237.36;117508;1185;21913;-55
2022/05/10 06:15:12;;;;;;;3.30;1.20;;;;;;;23.10;37.79;101237.84;117366;1185;23560;-56
2022/05/10 06:17:42;;;;;;;2.60;1.20;;;;;;;23.25;37.60;101235.35;117526;1185;22621;-55
2022/05/10 06:20:12;;;;;;;2.70;0.80;;;;;;;23.42;37.50;101238.73;117499;1180;21850;-54
2022/05/10 06:22:44;;;;;;;5.80;1.20;;;;;;;23.56;37.29;101236.59;117390;1184;22967;-56
2022/05/10 06:25:15;;;;;;;;;;;;;;;23.63;36.97;101240.90;117541;1186;23442;-56
2022/05/10 06:27:44;;;;;;;2.50;1.00;;;;;;;23.76;37.11;101239.64;117486;1184;23539;-55
2022/05/10 06:30:13;;;;;;;1.90;0.90;;;;;;;23.98;37.06;101242.42;117430;1186;22908;-55
2022/05/10 06:32:41;;;;;;;3.90;1.10;;;;;;;24.21;37.10;101239.70;117514;1183;21950;-55
2022/05/10 06:35:10;;;;;;;2.40;1.20;;;;;;;24.43;36.75;101238.70;117534;1184;22743;-55
2022/05/10 06:40:29;;;;;;;3.90;1.20;;;;;;;24.80;36.63;101241.80;117534;1185;23547;-55
2022/05/10 06:42:59;;;;;;;4.40;1.00;;;;;;;24.95;36.58;101238.05;117564;1184;23535;-56
2022/05/10 06:45:28;;;;;;;3.50;1.20;;;;;;;25.17;36.53;101236.56;117514;1185;21876;-55
2022/05/10 06:47:56;;;;;;;2.90;1.30;;;;;;;25.43;36.20;101240.23;117531;1181;22967;-55
2022/05/10 06:50:25;;;;;;;2.30;1.10;;;;;;;25.59;36.11;101238.71;117400;1186;23566;-56
2022/05/10 06:52:57;;;;;;;2.20;1.20;;;;;;;25.75;35.94;101236.23;117394;1182;22070;-55
2022/05/10 06:55:27;;;;;;;2.20;1.00;;;;;;;25.96;35.94;101233.55;117301;1186;24142;-55
2022/05/10 06:57:56;;;;;;;1.70;0.80;;;;;;;26.19;35.81;101234.80;117425;1185;22972;-56
2022/05/10 07:00:33;;;;;;;4.00;1.50;;;;;;;26.42;35.66;101233.81;117338;1185;23682;-56
2022/05/10 07:03:06;;;;;;;3.90;1.40;;;;;;;26.65;35.56;101234.63;117403;1185;21850;-56
2022/05/10 07:05:35;;;;;;;3.90;1.10;;;;;;;26.91;35.43;101233.83;117368;1185;23473;-55
2022/05/10 07:08:04;;;;;;;4.00;1.50;;;;;;;27.15;35.26;101234.41;117371;1185;23471;-56
2022/05/10 07:10:33;;;;;;;3.20;1.00;;;;;;;27.34;35.04;101232.79;117374;1184;21860;-56
2022/05/10 07:13:02;;;;;;;3.20;1.10;;;;;;;27.46;34.83;101235.16;117389;1185;22805;-56
2022/05/10 07:15:31;;;;;;;4.10;1.10;;;;;;;27.59;34.76;101233.71;117399;1185;23544;-56
2022/05/10 07:17:59;;;;;;;4.20;1.40;;;;;;;27.71;34.56;101237.73;117349;1184;24151;-56
2022/05/10 07:20:30;;;;;;;6.90;1.20;;;;;;;27.88;34.42;101235.08;117348;1185;23691;-56
2022/05/10 07:22:58;;;;;;;3.50;1.20;;;;;;;28.00;34.06;101238.77;117311;1186;22903;-56
2022/05/10 07:25:28;;;;;;;2.90;1.10;;;;;;;28.05;34.00;101235.11;117373;1186;24265;-56
2022/05/10 07:27:57;;;;;;;5.70;1.10;;;;;;;28.17;33.79;101237.90;117349;1186;22613;-56
2022/05/10 07:30:26;;;;;;;3.10;1.00;;;;;;;28.30;33.76;101236.95;117447;1181;22917;-56
2022/05/10 07:32:54;;;;;;;3.20;1.20;;;;;;;28.46;33.82;101236.66;117358;1185;21859;-56
2022/05/10 07:38:13;;;;;;;2.80;1.00;;;;;;;28.83;33.41;101236.99;117396;1185;24149;-56
2022/05/10 07:40:41;;;;;;;5.00;1.20;;;;;;;28.97;33.24;101237.56;117387;1184;21837;-56
2022/05/10 07:43:12;;;;;;;2.00;1.30;;;;;;;29.11;33.06;101232.02;117363;1185;22933;-56
2022/05/10 07:45:42;;;;;;;4.40;1.60;;;;;;;29.28;32.97;101232.84;117439;1185;21851;-56
2022/05/10 07:48:11;;;;;;;3.80;1.30;;;;;;;29.48;32.97;101231.50;117379;1180;23583;-53
2022/05/10 07:50:40;;;;;;;2.10;1.10;;;;;;;29.70;32.91;101231.73;117383;1185;21934;-54
2022/05/10 07:53:09;;;;;;;5.50;1.20;;;;;;;29.87;32.46;101226.27;117407;1185;23439;-54
2022/05/10 07:55:38;;;;;;;2.90;1.30;;;;;;;29.97;32.38;101227.80;117441;1185;21943;-53
2022/05/10 07:58:06;;;;;;;4.40;1.30;;;;;;;30.08;32.27;101224.92;117367;1188;21870;-53
2022/05/10 08:00:35;;;;;;;4.10;1.20;;;;;;;30.23;31.98;101223.72;117369;1185;23644;-53
2022/05/10 08:03:18;;;;;;;4.10;1.40;;;;;;;30.33;31.82;101224.53;117446;1184;21853;-54
2022/05/10 08:05:47;;;;;;;5.30;1.70;;;;;;;30.42;31.78;101225.00;117393;1185;23541;-53
2022/05/10 08:08:18;;;;;;;3.30;1.10;;;;;;;30.61;31.75;101221.67;117475;1184;23540;-53
2022/05/10 08:10:47;;;;;;;4.50;1.40;;;;;;;30.81;31.72;101221.27;117423;1185;23543;-54
2022/05/10 08:13:24;;;;;;;3.70;1.10;;;;;;;30.98;31.50;101220.71;117384;1180;23003;-54
2022/05/10 08:15:53;;;;;;;6.50;1.50;;;;;;;31.11;31.26;101220.52;117343;1185;24405;-54
2022/05/10 08:18:21;;;;;;;4.20;2.00;;;;;;;31.24;31.07;101223.11;117434;1185;23006;-54
2022/05/10 08:20:51;;;;;;;4.10;1.70;;;;;;;31.28;30.69;101220.02;117397;1185;23512;-55
2022/05/10 08:23:22;;;;;;;6.20;1.90;;;;;;;31.14;30.40;101222.83;117296;1185;21872;-55
2022/05/10 08:25:55;;;;;;;6.30;1.80;;;;;;;31.00;30.28;101222.61;117267;1186;24147;-55
2022/05/10 08:28:24;;;;;;;4.60;1.60;;;;;;;30.87;30.08;101225.30;117443;1185;22921;-55
2022/05/10 08:30:53;;;;;;;3.00;1.60;;;;;;;30.97;30.24;101224.62;117416;1184;22905;-55
2022/05/10 08:33:23;;;;;;;4.20;1.80;;;;;;;31.11;30.06;101220.00;117567;1184;22678;-54
2022/05/10 08:35:52;;;;;;;5.10;1.60;;;;;;;31.31;30.19;101218.14;117445;1185;22982;-55
2022/05/10 08:38:21;;;;;;;4.10;1.40;;;;;;;31.53;30.03;101215.63;117413;1185;22909;-55
2022/05/10 08:41:08;;;;;;;4.00;1.80;;;;;;;31.38;29.20;101213.34;117497;1186;21941;-54
2022/05/10 08:43:48;;;;;;;2.70;1.50;;;;;;;30.81;28.81;101214.73;117478;1185;23436;-54
2022/05/10 08:46:18;;;;;;;3.10;1.70;;;;;;;30.56;28.89;101216.25;117465;1184;21878;-54
2022/05/10 08:48:47;;;;;;;;;;;;;;;30.28;28.66;101221.52;117450;1185;23540;-55
2022/05/10 08:51:15;;;;;;;16.10;2.20;;;;;;;30.07;28.56;101221.73;117513;1183;21850;-55
2022/05/10 08:53:44;;;;;;;5.50;1.70;;;;;;;29.89;28.42;101224.64;117417;1186;23541;-54
2022/05/10 08:56:26;;;;;;;6.90;1.70;;;;;;;29.68;28.21;101222.13;117560;1184;22800;-54
2022/05/10 08:59:16;;;;;;;5.40;2.20;;;;;;;29.55;28.28;101222.44;117383;1186;22978;-55
2022/05/10 09:02:07;;;;;;;3.70;1.60;;;;;;;29.66;28.33;101218.13;117311;1185;23537;-55
2022/05/10 09:04:41;;;;;;;5.40;1.70;;;;;;;29.73;28.14;101215.77;117361;1183;22954;-55
2022/05/10 09:07:28;;;;;;;3.20;1.80;;;;;;;29.77;28.22;101212.05;117285;1185;23541;-55
2022/05/10 09:10:06;;;;;;;5.60;2.10;;;;;;;29.97;28.34;101200.64;117329;1185;23541;-55
2022/05/10 09:12:42;;;;;;;4.00;1.60;;;;;;;30.28;27.98;101199.98;117348;1186;22800;-55
2022/05/10 09:15:11;;;;;;;3.10;1.70;;;;;;;30.32;27.85;101197.61;117503;1183;21856;-56
2022/05/10 09:17:40;;;;;;;4.50;1.70;;;;;;;30.49;27.81;101198.51;117098;1186;22659;-56
2022/05/10 09:20:09;;;;;;;4.30;1.80;;;;;;;30.54;27.52;101193.58;117426;1185;23060;-55
2022/05/10 09:23:14;;;;;;;7.10;2.60;;;;;;;30.60;27.47;101188.98;117452;1184;23528;-55
2022/05/10 09:25:45;;;;;;;4.70;1.90;;;;;;;30.55;27.21;101186.52;117317;1185;22918;-55
2022/05/10 09:28:27;;;;;;;3.90;1.80;;;;;;;30.53;27.29;101183.36;117484;1185;22831;-55
2022/05/10 09:36:31;;;;;;;5.90;2.10;;;;;;;31.17;27.25;101175.46;117387;1185;23558;-55
2022/05/10 09:39:21;;;;;;;4.20;2.10;;;;;;;31.24;26.95;101171.37;117409;1184;21849;-55
2022/05/10 09:41:53;;;;;;;6.80;1.70;;;;;;;31.26;26.99;101169.43;117444;1186;22794;-56
2022/05/10 09:44:27;;;;;;;3.70;1.50;;;;;;;31.09;26.43;101177.23;117494;1185;21849;-56
2022/05/10 09:47:17;;;;;;;6.00;2.10;;;;;;;30.78;26.20;101180.75;117472;1184;22166;-56
2022/05/10 09:49:45;;;;;;;2.50;1.30;;;;;;;30.51;26.17;101177.40;117350;1185;21870;-55
2022/05/10 09:52:18;;;;;;;5.20;2.20;;;;;;;30.49;26.40;101175.77;117370;1185;23567;-55
2022/05/10 09:54:48;;;;;;;3.00;1.30;;;;;;;30.63;26.47;101173.52;117393;1184;21850;-55
2022/05/10 09:57:37;;;;;;;3.40;1.60;;;;;;;30.61;26.08;101169.33;117455;1185;21858;-55
2022/05/10 10:00:12;;;;;;;2.90;1.90;;;;;;;30.59;26.01;101168.69;117556;1185;23690;-55
2022/05/10 10:02:42;;;;;;;3.30;1.80;;;;;;;30.67;26.09;101165.42;117452;1182;21855;-55
2022/05/10 10:05:31;;;;;;;5.10;1.70;;;;;;;30.60;25.78;101165.79;117407;1186;22986;-55
2022/05/10 10:07:59;;;;;;;6.50;1.70;;;;;;;30.39;25.66;101163.02;117545;1185;22910;-55
2022/05/10 10:10:29;;;;;;;4.50;1.80;;;;;;;30.26;25.47;101157.59;117463;1185;24146;-55
2022/05/10 10:12:59;;;;;;;5.50;1.60;;;;;;;29.96;25.32;101156.45;117394;1186;21849;-55
2022/05/10 10:15:38;;;;;;;3.60;1.70;;;;;;;29.81;25.42;101154.14;117535;1185;21935;-55
2022/05/10 10:18:08;;;;;;;3.50;1.80;;;;;;;30.22;25.68;101152.32;117397;1188;23541;-55
2022/05/10 10:20:55;;;;;;;10.80;2.40;;;;;;;30.71;25.67;101151.81;117393;1185;21844;-55
2022/05/10 10:23:41;;;;;;;3.90;1.80;;;;;;;31.13;25.70;101145.70;117411;1185;24162;-57
2022/05/10 10:26:32;;;;;;;2.00;1.40;;;;;;;31.38;25.20;101141.16;117396;1186;21986;-55
2022/05/10 10:29:22;;;;;;;2.10;1.30;;;;;;;31.34;25.26;101137.36;117552;1184;21852;-56
2022/05/10 10:31:53;;;;;;;4.00;1.70;;;;;;;31.74;25.51;101131.30;117516;1185;23538;-56
2022/05/10 10:34:45;;;;;;;3.00;1.50;;;;;;;32.21;25.40;101131.23;117402;1185;21853;-56
2022/05/10 10:37:16;;;;;;;2.60;1.20;;;;;;;32.52;25.32;101126.30;117456;1185;21847;-55
2022/05/10 10:39:52;;;;;;;3.20;1.30;;;;;;;32.79;25.27;101121.05;117567;1186;21853;-55
2022/05/10 10:42:33;;;;;;;5.20;1.50;;;;;;;33.16;25.36;101114.85;117302;1186;21864;-57
2022/05/10 10:45:04;;;;;;;7.30;1.80;;;;;;;33.60;25.30;101110.79;117318;1185;21852;-56
2022/05/10 10:48:00;;;;;;;3.30;1.90;;;;;;;33.99;25.27;101110.94;117300;1185;21853;-56
2022/05/10 10:50:30;;;;;;;5.60;1.80;;;;;;;33.88;24.78;101111.80;117303;1186;22906;-56
2022/05/10 10:52:59;;;;;;;;;;;;;;;33.75;24.69;101112.46;117371;1184;21826;-56
2022/05/10 10:55:43;;;;;;;1.80;1.20;;;;;;;33.71;24.46;101112.27;117350;1182;23643;-56
2022/05/10 10:58:18;;;;;;;3.00;1.50;;;;;;;33.47;24.26;101110.61;117405;1185;22916;-56
2022/05/10 11:01:04;;;;;;;5.10;1.60;;;;;;;33.15;24.04;101113.67;117301;1185;21857;-56
2022/05/10 11:03:49;;;;;;;2.80;1.60;;;;;;;32.88;23.90;101108.08;117403;1185;21837;-56
2022/05/10 11:06:22;;;;;;;3.80;1.60;;;;;;;32.65;23.82;101114.42;117376;1185;24137;-56
2022/05/10 11:09:05;;;;;;;2.70;1.60;;;;;;;32.34;23.50;101116.02;117377;1185;23587;-56
2022/05/10 11:11:53;;;;;;;2.30;1.40;;;;;;;32.03;23.55;101109.05;117307;1185;23531;-55
2022/05/10 11:14:28;;;;;;;2.70;1.40;;;;;;;31.77;23.45;101104.34;117364;1186;22971;-55
2022/05/10 11:17:01;;;;;;;3.60;1.50;;;;;;;31.51;23.14;101099.62;117353;1185;22843;-57
2022/05/10 11:19:55;;;;;;;2.90;1.70;;;;;;;31.18;23.12;101089.61;117369;1185;21957;-56
2022/05/10 11:22:26;;;;;;;2.70;1.80;;;;;;;30.76;23.11;101085.33;117357;1185;21842;-55
2022/05/10 11:25:10;;;;;;;5.70;1.40;;;;;;;30.84;23.41;101084.60;117358;1185;23537;-56
2022/05/10 11:28:16;;;;;;;5.60;2.00;;;;;;;31.24;23.38;101078.91;117298;1186;21875;-56
2022/05/10 11:30:47;;;;;;;6.00;1.70;;;;;;;31.63;23.21;101075.15;118487;1184;23537;-56
2022/05/10 11:33:31;;;;;;;3.80;1.60;;;;;;;32.25;23.85;101067.88;117521;1186;23592;-55
2022/05/10 11:36:02;;;;;;;2.80;1.40;;;;;;;32.98;23.76;101064.80;117358;1183;22911;-56
2022/05/10 11:38:46;;;;;;;4.70;2.10;;;;;;;33.35;23.24;101063.39;117344;1186;24224;-56
2022/05/10 11:41:37;;;;;;;7.00;2.30;;;;;;;33.31;22.73;101056.14;117353;1185;22598;-56
2022/05/10 11:44:09;;;;;;;4.40;2.00;;;;;;;32.92;22.59;101051.84;117425;1185;21936;-56
2022/05/10 11:46:41;;;;;;;4.10;2.10;;;;;;;32.81;22.73;101051.16;117369;1185;23545;-55
2022/05/10 11:49:46;;;;;;;6.00;1.70;;;;;;;32.91;22.78;101047.28;117460;1185;23474;-56
2022/05/10 11:52:36;;;;;;;3.70;2.50;;;;;;;33.23;23.03;101043.98;117375;1185;22803;-56
2022/05/10 11:55:30;;;;;;;4.80;1.90;;;;;;;33.60;22.98;101037.45;117366;1185;24151;-56
2022/05/10 11:58:03;;;;;;;8.90;2.00;;;;;;;34.03;22.91;101033.73;117330;1185;21862;-56
2022/05/10 12:00:32;;;;;;;7.70;1.70;;;;;;;34.25;22.65;101031.27;117371;1185;23567;-56
2022/05/10 12:03:03;;;;;;;4.70;2.00;;;;;;;34.08;22.39;101031.23;117368;1185;23541;-56
2022/05/10 12:05:33;;;;;;;3.30;1.40;;;;;;;33.59;22.23;101029.05;117362;1185;21843;-57
2022/05/10 12:08:03;;;;;;;;;;;;;;;33.50;22.31;101025.79;117389;1184;22921;-57